Terminal Aerodrome Forecast
Issued by NWS Blacksburg, VA

Home | Current Version | Previous Version | Text Only | Print | Product List | Glossary On
Versions: 1 2 3 4 5 6 7 8 9 10 11 12 13 14 15 16 17 18 19 20 21 22 23 24 25
000
FTUS41 KRNK 030521
TAFLYH
TAF
KLYH 030521Z 0306/0406 22004KT P6SM -SHRA SCT005 OVC060
      TEMPO 0308/0312 2SM BR OVC005
     FM031200 26008KT P6SM OVC050
     FM040000 30006KT P6SM BKN060=

USA.gov is the U.S. government's official web portal to all federal, state and local government web resources and services.